Aviation Digital Data Service (ADDS)

Output produced by METARs form (0913 UTC 19 April 2019)
found at http://www.aviationweather.gov/metar/data/
 
Forecast for: FKKL (MAROUA SALAK , CM)
Text: TAF FKKL 190500Z 1906/1918 VRB08KT 3000 DU NSC
Forecast period: 0600 to 1800 UTC 19 April 2019
Forecast type: FROM: standard forecast or significant change
Winds: variable direction winds at 9 MPH (8 knots; 4.1 m/s)
Visibility: 1.86 miles (2.99 km)
Ceiling: unknown
Clouds: missing
Weather: DU  (widespread dust)